17/7/06
Time Wind Dir Wind Spd Humidity Temp Raw Barom Tot Rain Wind Chill Dew Point DailyRain
  mph % C mb mm C C mm
12:15am 281 0 53 22.1 1026 2316.73 22.1 12.1 0.00
12:30am 353 0 53 21.9 1026 2316.73 21.9 11.9 0.00
12:45am 269 5 56 21.4 1026 2316.73 21.4 12.3 0.00
1:00am 289 0 59 20.7 1026 2316.73 20.7 12.4 0.00
1:15am 303 2 59 20.7 1026 2316.73 20.7 12.4 0.00
1:30am 305 2 59 20.4 1026 2316.73 20.4 12.2 0.00
1:45am 309 4 61 20.2 1026 2316.73 20.2 12.4 0.00
2:00am 327 4 61 19.9 1026 2316.73 19.9 12.2 0.00
2:15am 322 5 61 19.8 1026 2316.73 19.8 12.1 0.00
2:30am 327 6 62 19.7 1026 2316.73 19.7 12.2 0.00
2:45am 319 4 63 19.5 1026 2316.73 19.5 12.3 0.00
3:00am 322 5 63 19.4 1025 2316.73 19.4 12.2 0.00
3:15am 341 6 64 19.2 1025 2316.73 19.2 12.3 0.00
3:30am 324 5 64 19.1 1025 2316.73 19.1 12.1 0.00
3:45am 302 3 64 19.1 1025 2316.73 19.1 12.1 0.00
4:00am 322 3 66 18.7 1025 2316.73 18.7 12.2 0.00
4:15am 317 6 67 18.4 1025 2316.73 18.4 12.2 0.00
4:30am 327 6 67 18.3 1025 2316.73 18.3 12.1 0.00
4:45am 329 8 67 18.2 1025 2316.73 18.1 11.9 0.00
5:00am 314 7 68 18.0 1025 2316.73 18.0 12.0 0.00
5:15am 330 7 67 18.1 1025 2316.73 18.1 11.8 0.00
5:30am 326 7 66 18.3 1025 2316.73 18.3 11.9 0.00
5:45am 319 5 65 18.7 1025 2316.73 18.7 12.0 0.00
6:00am 323 3 61 19.5 1025 2316.73 19.5 11.8 0.00
6:15am 317 6 61 19.6 1025 2316.73 19.6 11.8 0.00
6:30am 320 2 63 19.3 1025 2316.73 19.3 12.1 0.00
6:45am 322 5 64 19.4 1025 2316.73 19.4 12.4 0.00
7:00am 327 9 63 19.8 1025 2316.73 19.8 12.5 0.00
7:15am 339 5 62 20.2 1025 2316.73 20.2 12.7 0.00
7:30am 339 7 61 20.7 1025 2316.73 20.7 12.9 0.00
7:45am 314 7 61 20.8 1025 2316.73 20.8 13.0 0.00
8:00am 312 3 60 21.3 1026 2316.73 21.3 13.2 0.00
8:15am 344 8 58 22.1 1026 2316.73 22.1 13.5 0.00
8:30am 21 11 55 23.3 1025 2316.73 23.3 13.7 0.00
8:45am 20 9 54 23.9 1025 2316.73 23.9 14.1 0.00
9:00am 350 7 53 24.4 1025 2316.73 24.4 14.3 0.00
9:15am 336 6 53 24.8 1026 2316.73 24.8 14.6 0.00
9:30am 2 6 53 24.9 1025 2316.73 24.9 14.7 0.00
9:45am 5 13 51 25.1 1025 2316.73 25.1 14.3 0.00
10:00am 15 12 50 25.6 1025 2316.73 25.6 14.4 0.00
10:15am 14 12 48 26.2 1025 2316.73 26.2 14.4 0.00
10:30am 15 4 48 26.7 1025 2316.73 26.7 14.8 0.00
10:45am 29 7 44 27.4 1025 2316.73 27.4 14.1 0.00
11:00am 9 8 41 28.1 1025 2316.73 28.1 13.6 0.00
11:15am 8 4 39 28.7 1025 2316.73 28.7 13.4 0.00
11:30am 155 6 44 29.4 1025 2316.73 29.4 15.9 0.00
11:45am 164 6 46 29.4 1025 2316.73 29.4 16.6 0.00
12:00pm 169 6 52 28.6 1025 2316.73 28.6 17.7 0.00
12:15pm 162 8 54 28.6 1026 2316.73 28.6 18.4 0.00
12:30pm 150 4 52 28.7 1026 2316.73 28.7 17.9 0.00
12:45pm 146 3 51 28.7 1026 2316.73 28.7 17.6 0.00
1:00pm 123 3 49 28.8 1026 2316.73 28.8 17.1 0.00
1:15pm 123 2 48 28.8 1026 2316.73 28.8 16.7 0.00
1:30pm 123 1 49 29.1 1026 2316.73 29.1 17.3 0.00
1:45pm 175 2 50 29.1 1025 2316.73 29.1 17.6 0.00
2:00pm 195 2 49 29.3 1025 2316.73 29.3 17.5 0.00
2:15pm 213 3 47 29.4 1025 2316.73 29.4 17.0 0.00
2:30pm 207 4 49 29.4 1025 2316.73 29.4 17.6 0.00
2:45pm 209 3 49 29.3 1025 2316.73 29.3 17.5 0.00
3:00pm 233 4 49 29.3 1025 2316.73 29.3 17.5 0.00
3:15pm 227 6 48 29.3 1025 2316.73 29.3 17.2 0.00
3:30pm 228 4 48 29.5 1025 2316.73 29.5 17.3 0.00
3:45pm 221 4 47 29.6 1025 2316.73 29.6 17.1 0.00
4:00pm 222 4 46 30.0 1024 2316.73 30.0 17.1 0.00
4:15pm 217 2 47 30.2 1024 2316.73 30.2 17.7 0.00
4:30pm 204 2 47 30.3 1024 2316.73 30.3 17.8 0.00
4:45pm 147 5 48 30.0 1024 2316.73 30.0 17.8 0.00
5:00pm 141 4 49 29.9 1024 2316.73 29.9 18.0 0.00
5:15pm 140 1 50 29.7 1024 2316.73 29.7 18.1 0.00
5:30pm 154 3 50 29.6 1024 2316.73 29.6 18.0 0.00
5:45pm 152 2 49 29.7 1024 2316.73 29.7 17.9 0.00
6:00pm 123 3 50 29.4 1024 2316.73 29.4 17.9 0.00
6:15pm 123 1 50 29.1 1024 2316.73 29.1 17.6 0.00
6:30pm 123 2 51 29.2 1024 2316.73 29.2 18.1 0.00
6:45pm 123 0 51 29.2 1024 2316.73 29.2 18.1 0.00
7:00pm 123 0 50 29.2 1023 2316.73 29.2 17.7 0.00
7:15pm 121 1 51 28.6 1023 2316.73 28.6 17.5 0.00
7:30pm 121 0 50 28.5 1023 2316.73 28.5 17.1 0.00
7:45pm 121 2 50 28.2 1023 2316.73 28.2 16.8 0.00
8:00pm 120 0 51 28.2 1023 2316.73 28.2 17.1 0.00
8:15pm 113 1 48 28.9 1023 2316.73 28.9 16.8 0.00
8:30pm 113 0 48 29.0 1023 2316.73 29.0 16.9 0.00
8:45pm 106 2 51 28.3 1023 2316.73 28.3 17.2 0.00
9:00pm 104 2 57 26.6 1023 2316.73 26.6 17.4 0.00
9:15pm 104 3 62 25.5 1023 2316.73 25.5 17.7 0.00
9:30pm 103 0 63 25.0 1023 2316.73 25.0 17.5 0.00
9:45pm 100 1 63 24.8 1023 2316.73 24.8 17.3 0.00
10:00pm 46 0 65 24.5 1023 2316.73 24.5 17.5 0.00
10:15pm 354 0 65 24.1 1023 2316.73 24.1 17.1 0.00
10:30pm 354 0 64 23.9 1023 2316.73 23.9 16.7 0.00
10:45pm 354 0 63 24.0 1024 2316.73 24.0 16.5 0.00
11:00pm 354 0 67 23.8 1024 2316.73 23.8 17.3 0.00
11:15pm 354 0 66 23.7 1024 2316.73 23.7 16.9 0.00
11:30pm 354 0 66 23.5 1024 2316.73 23.5 16.8 0.00
11:45pm 354 0 64 23.2 1024 2316.73 23.2 16.0 0.00

 

 

un:yes'> 16.0 0.00